^^
Portofino Weather Station Historical Data
 
Daily Summary for May 05, 2026 Units:  English    Metric   Both
Daily Weekly Monthly Yearly
  Current: High: Low: Average:
Temperature: 76 °F 79.7 °F 49.1 °F 67.3 °F
Dew Point: 56 °F 59.4 °F 46.6 °F 53.9 °F
Humidity: 50% 93.2% 44% 64%
Wind Speed: 9.2mph 13.1mph 0mph 5.8mph
Wind Gust: 19.6mph 23mph - -
WindSSW - - SSW
Pressure: 29.97 in 30.08 in 29.97 in -
Precipitation: 0.00 in      
 
 
Tabular Data for May 05, 2026
Time Temperature Dew Point Pressure Wind Wind Speed Wind Gust Humidity Rainfall Rate (Hourly)
00:09 63.4 °F 51.4 °F 30.02 in SSW 7.8 mph 14.4 mph 65% 0.00 in
00:14 63.4 °F 51.4 °F 30.03 in SSW 5.7 mph 15 mph 65% 0.00 in
00:19 63.2 °F 51.2 °F 30.03 in SSW 5.2 mph 10.8 mph 65% 0.00 in
00:24 63 °F 51 °F 30.03 in SSW 5.9 mph 15 mph 65% 0.00 in
00:29 63 °F 51 °F 30.03 in SSW 4.7 mph 10.4 mph 65% 0.00 in
00:34 62.9 °F 51.2 °F 30.03 in SSW 5.3 mph 10.8 mph 65.6% 0.00 in
00:39 62.8 °F 51.2 °F 30.03 in SSW 6.1 mph 10.8 mph 65.6% 0.00 in
00:44 62.9 °F 51 °F 30.03 in SSW 5.7 mph 10.8 mph 65% 0.00 in
00:49 62.9 °F 51 °F 30.02 in SSW 6.2 mph 12 mph 65% 0.00 in
00:54 62.8 °F 50.9 °F 30.02 in SSW 7 mph 16.1 mph 65% 0.00 in
00:59 62.7 °F 50.8 °F 30.03 in SSW 5.4 mph 10.8 mph 65% 0.00 in
01:04 62.6 °F 50.7 °F 30.03 in SSW 5.2 mph 10.4 mph 65.1% 0.00 in
01:09 62.5 °F 50.8 °F 30.03 in SSW 5.4 mph 12 mph 65.4% 0.00 in
01:14 62.4 °F 50.5 °F 30.03 in SSW 5.2 mph 9.2 mph 65% 0.00 in
01:19 62.3 °F 50.4 °F 30.03 in SSW 5.4 mph 9.6 mph 65% 0.00 in
01:24 62.2 °F 50.5 °F 30.03 in SSW 4.1 mph 10.8 mph 65.5% 0.00 in
01:29 62 °F 50.5 °F 30.03 in SSW 4.3 mph 10.4 mph 66% 0.00 in
01:34 61.9 °F 50.4 °F 30.02 in SSW 4.7 mph 8.4 mph 66% 0.00 in
01:39 61.7 °F 50.2 °F 30.02 in SSW 5.6 mph 10.8 mph 66% 0.00 in
01:44 61.7 °F 50.2 °F 30.02 in SSW 3.7 mph 7.2 mph 66% 0.00 in
01:49 61.5 °F 50.2 °F 30.02 in SSW 5 mph 8.4 mph 66.6% 0.00 in
01:54 61.4 °F 50.3 °F 30.02 in SSW 3.5 mph 7.2 mph 67% 0.00 in
01:59 61.2 °F 50.3 °F 30.02 in SSW 4.9 mph 8.4 mph 67.3% 0.00 in
02:04 61 °F 50.4 °F 30.02 in SSW 3.7 mph 8.1 mph 68% 0.00 in
02:09 60.9 °F 50.3 °F 30.02 in SSW 4.6 mph 8.4 mph 68% 0.00 in
02:14 60.8 °F 50.2 °F 30.02 in SSW 4.7 mph 7.2 mph 68% 0.00 in
02:19 60.9 °F 50.3 °F 30.02 in SSW 4.3 mph 9.6 mph 68% 0.00 in
02:24 60.7 °F 50.1 °F 30.02 in SSW 3.5 mph 8.4 mph 68% 0.00 in
02:29 60.6 °F 50.2 °F 30.02 in SSW 3.8 mph 8.4 mph 68.5% 0.00 in
02:34 60.5 °F 50.3 °F 30.01 in SSW 3.5 mph 6.9 mph 69% 0.00 in
02:39 60.4 °F 50.2 °F 30.01 in SSW 3.2 mph 7.2 mph 69% 0.00 in
02:44 60.3 °F 50.1 °F 30.02 in SSW 4.5 mph 8.4 mph 69% 0.00 in
02:49 60.2 °F 50.2 °F 30.02 in SSW 4.8 mph 9.6 mph 69.6% 0.00 in
02:54 60 °F 50.2 °F 30.02 in SSW 3.6 mph 7.2 mph 70% 0.00 in
02:59 59.9 °F 50.1 °F 30.02 in SSW 4.1 mph 10.8 mph 70% 0.00 in
03:04 59.8 °F 50.2 °F 30.02 in SSW 3.3 mph 7.2 mph 70.5% 0.00 in
03:09 59.6 °F 50.2 °F 30.02 in SSW 3.9 mph 7.2 mph 71% 0.00 in
03:14 59.5 °F 50.4 °F 30.02 in SSW 5.5 mph 12 mph 71.6% 0.00 in
03:19 59.4 °F 50.4 °F 30.02 in South 3.4 mph 6 mph 72% 0.00 in
03:24 59.2 °F 50.2 °F 30.02 in South 2.9 mph 5.8 mph 72% 0.00 in
03:29 59 °F 50.3 °F 30.02 in SSW 2.7 mph 4.8 mph 72.7% 0.00 in
03:34 58.8 °F 50.2 °F 30.02 in SSW 3 mph 4.8 mph 73% 0.00 in
03:39 58.6 °F 50 °F 30.02 in South 1.9 mph 4.6 mph 73% 0.00 in
03:44 58.4 °F 50.1 °F 30.02 in SSW 1.8 mph 3.6 mph 74% 0.00 in
03:49 58.2 °F 50.1 °F 30.02 in SSW 2.7 mph 4.8 mph 74.3% 0.00 in
03:54 58.1 °F 50.2 °F 30.02 in South 1.8 mph 3.6 mph 75% 0.00 in
03:59 57.9 °F 50 °F 30.02 in South 1.4 mph 2.4 mph 75% 0.00 in
04:04 57.7 °F 50 °F 30.02 in South 1.5 mph 2.4 mph 75.6% 0.00 in
04:09 57.5 °F 50 °F 30.02 in South 1.2 mph 2.4 mph 75.8% 0.00 in
04:14 57.3 °F 49.8 °F 30.02 in South 1.2 mph 3.6 mph 76% 0.00 in
04:19 57.1 °F 49.7 °F 30.02 in SSW 0.1 mph 1.2 mph 76.4% 0.00 in
04:24 56.8 °F 49.7 °F 30.02 in SSW 0.2 mph 1.2 mph 76.8% 0.00 in
04:29 56.6 °F 49.5 °F 30.02 in Calm   1.2 mph 77% 0.00 in
04:34 56.2 °F 49.6 °F 30.02 in SSW 0.8 mph 1.2 mph 78.5% 0.00 in
04:39 55.5 °F 49.4 °F 30.02 in South 1.2 mph 2.4 mph 79.8% 0.00 in
04:44 55 °F 49.3 °F 30.03 in South 0.5 mph 2.3 mph 81% 0.00 in
04:49 54.5 °F 48.9 °F 30.03 in Calm   1.2 mph 81.2% 0.00 in
04:54 54.2 °F 48.8 °F 30.03 in South 0.4 mph 1.2 mph 82% 0.00 in
04:59 53.8 °F 48.6 °F 30.03 in Calm   1.2 mph 82.5% 0.00 in
05:04 53.5 °F 48.6 °F 30.03 in Calm     83.4% 0.00 in
05:09 53.2 °F 48.5 °F 30.03 in Calm     84% 0.00 in
05:14 52.8 °F 48.3 °F 30.03 in Calm     84.7% 0.00 in
05:19 52.4 °F 48.2 °F 30.03 in South 0.6 mph 2.4 mph 85.5% 0.00 in
05:24 52 °F 47.9 °F 30.03 in South 0.9 mph 2.4 mph 86% 0.00 in
05:29 51.7 °F 47.9 °F 30.04 in South 0.8 mph 1.2 mph 86.8% 0.00 in
05:34 51.4 °F 47.8 °F 30.04 in South 0.5 mph 2.4 mph 87.1% 0.00 in
05:39 51.1 °F 47.6 °F 30.04 in South 0.8 mph 2.3 mph 87.5% 0.00 in
05:44 50.8 °F 47.4 °F 30.04 in South 0.5 mph 1.2 mph 88% 0.00 in
05:49 50.6 °F 47.3 °F 30.04 in South 0.5 mph 1.2 mph 88.4% 0.00 in
05:54 50.3 °F 47.2 °F 30.04 in South 0.5 mph 1.2 mph 89% 0.00 in
05:59 50.2 °F 47.1 °F 30.04 in South 0.2 mph 1.2 mph 89% 0.00 in
06:04 50 °F 46.9 °F 30.04 in South 0.4 mph 1.2 mph 89.2% 0.00 in
06:09 49.8 °F 47 °F 30.04 in South 0.5 mph 1.2 mph 89.9% 0.00 in
06:14 49.7 °F 46.9 °F 30.04 in South 0.6 mph 1.2 mph 90% 0.00 in
06:19 49.6 °F 46.9 °F 30.04 in SSE 0.4 mph 1.2 mph 90.3% 0.00 in
06:24 49.5 °F 46.9 °F 30.04 in North 0.8 mph 1.2 mph 90.7% 0.00 in
06:29 49.3 °F 46.8 °F 30.05 in North 0.2 mph 1.2 mph 91% 0.00 in
06:34 49.2 °F 46.7 °F 30.05 in North 0.5 mph 1.2 mph 91% 0.00 in
06:39 49.1 °F 46.6 °F 30.05 in North 0.5 mph 1.2 mph 91% 0.00 in
06:44 49.1 °F 46.7 °F 30.05 in North 0.3 mph 1.2 mph 91.3% 0.00 in
06:49 49.1 °F 46.9 °F 30.05 in Calm     92% 0.00 in
06:54 49.5 °F 47.3 °F 30.05 in Calm     92.2% 0.00 in
06:59 50.4 °F 48.5 °F 30.06 in Calm     93% 0.00 in
07:04 51.1 °F 49.1 °F 30.06 in Calm   1.2 mph 93% 0.00 in
07:09 52 °F 50 °F 30.06 in Calm   1.2 mph 93.2% 0.00 in
07:14 52.9 °F 50.9 °F 30.07 in North 0.3 mph 1.2 mph 93% 0.00 in
07:19 53.7 °F 51.4 °F 30.07 in Calm     92.1% 0.00 in
07:24 54.6 °F 52.3 °F 30.07 in Calm   1.2 mph 92% 0.00 in
07:29 55.9 °F 53.2 °F 30.07 in North 0.1 mph 1.2 mph 90.6% 0.00 in
07:34 57.1 °F 53.7 °F 30.07 in Calm   1.2 mph 88.5% 0.00 in
07:39 58.3 °F 54 °F 30.07 in North 0.4 mph 1.2 mph 85.6% 0.00 in
07:44 59.1 °F 53.4 °F 30.07 in NW 1.3 mph 3.6 mph 81.5% 0.00 in
07:49 59 °F 52.8 °F 30.07 in South 1.7 mph 2.4 mph 80% 0.00 in
07:54 58.9 °F 52.8 °F 30.07 in South 2.1 mph 4.8 mph 80.3% 0.00 in
07:59 59 °F 53 °F 30.07 in South 3.1 mph 7.2 mph 80.4% 0.00 in
08:04 59.2 °F 53.1 °F 30.07 in SSW 2.5 mph 4.8 mph 80.2% 0.00 in
08:09 59.5 °F 53.2 °F 30.07 in SSW 3.6 mph 8.4 mph 79.5% 0.00 in
08:14 60.1 °F 53.3 °F 30.07 in SSW 4.1 mph 8.4 mph 78.5% 0.00 in
08:19 60.6 °F 53.5 °F 30.07 in SW 4.8 mph 10.8 mph 77.4% 0.00 in
08:24 61.2 °F 53.7 °F 30.07 in SW 4.4 mph 10.8 mph 76.5% 0.00 in
08:29 61.6 °F 53.9 °F 30.07 in SW 3.8 mph 10.4 mph 75.6% 0.00 in
08:34 62.1 °F 54.1 °F 30.07 in SW 3.6 mph 7.2 mph 75% 0.00 in
08:39 62.5 °F 54.6 °F 30.07 in SSW 4.8 mph 8.4 mph 75.2% 0.00 in
08:44 62.9 °F 54.6 °F 30.07 in SSW 6.3 mph 12 mph 74.2% 0.00 in
08:49 63.4 °F 55 °F 30.07 in SSW 4.5 mph 11.5 mph 74.2% 0.00 in
08:54 63.9 °F 55.1 °F 30.07 in SW 4.6 mph 12 mph 73% 0.00 in
08:59 64.4 °F 55.6 °F 30.08 in SW 4.8 mph 11.5 mph 73.1% 0.00 in
09:04 65 °F 55.9 °F 30.08 in SW 4.5 mph 12 mph 72.5% 0.00 in
09:09 65.5 °F 56.1 °F 30.08 in SW 7.5 mph 18.4 mph 71.8% 0.00 in
09:14 65.9 °F 56.3 °F 30.08 in SW 6.1 mph 10.8 mph 71.4% 0.00 in
09:19 66.4 °F 57 °F 30.07 in SW 3.7 mph 10.8 mph 71.9% 0.00 in
09:24 67 °F 57.1 °F 30.07 in SW 5.4 mph 13.2 mph 70.4% 0.00 in
09:29 67.2 °F 57 °F 30.07 in SSW 5.2 mph 12 mph 69.7% 0.00 in
09:34 67.5 °F 57.1 °F 30.07 in SSW 7.2 mph 18.4 mph 69.3% 0.00 in
09:39 67.9 °F 57.5 °F 30.07 in SW 7 mph 16.1 mph 69.3% 0.00 in
09:44 68.2 °F 57.4 °F 30.07 in SW 6.3 mph 12.7 mph 68.6% 0.00 in
09:49 68.5 °F 57.7 °F 30.07 in SSW 6.6 mph 13.2 mph 68.5% 0.00 in
09:54 68.7 °F 57.7 °F 30.07 in SW 5.3 mph 12.7 mph 68% 0.00 in
09:59 69.2 °F 58 °F 30.07 in SW 5.5 mph 13.2 mph 67.5% 0.00 in
10:04 69.5 °F 57.9 °F 30.07 in SSW 8.9 mph 18.4 mph 66.6% 0.00 in
10:09 69.5 °F 57.6 °F 30.07 in SSW 8.7 mph 16.1 mph 66% 0.00 in
10:14 69.7 °F 57.8 °F 30.07 in SW 8.9 mph 16.1 mph 66% 0.00 in
10:19 69.8 °F 57.2 °F 30.07 in SW 8.5 mph 16.1 mph 64.2% 0.00 in
10:24 69.9 °F 57.3 °F 30.07 in SW 6.3 mph 16.1 mph 64.3% 0.00 in
10:29 70.3 °F 57.6 °F 30.07 in SW 6.6 mph 16.1 mph 64.1% 0.00 in
10:34 70.5 °F 57.5 °F 30.07 in SSW 9.8 mph 21.9 mph 63.5% 0.00 in
10:39 70.8 °F 57.8 °F 30.07 in SW 6.1 mph 13.2 mph 63.5% 0.00 in
10:44 71.1 °F 58.3 °F 30.07 in SSW 4.4 mph 16.1 mph 64% 0.00 in
10:49 71.3 °F 57.9 °F 30.07 in SSW 8.6 mph 19.6 mph 62.6% 0.00 in
10:54 71.4 °F 57.8 °F 30.07 in SW 7.3 mph 15 mph 62.2% 0.00 in
10:59 71.6 °F 57.9 °F 30.07 in SW 5.3 mph 12 mph 62.2% 0.00 in
11:04 72.1 °F 58.2 °F 30.07 in SSW 8.3 mph 13.2 mph 61.7% 0.00 in
11:09 72.1 °F 57.7 °F 30.07 in SW 7.4 mph 13.2 mph 60.6% 0.00 in
11:14 72.9 °F 58.9 °F 30.07 in SSW 5.8 mph 13.2 mph 61.4% 0.00 in
11:19 73.1 °F 58.5 °F 30.07 in SW 9.3 mph 16.8 mph 60.1% 0.00 in
11:24 72.6 °F 58.2 °F 30.07 in SW 5.8 mph 15 mph 60.6% 0.00 in
11:29 72.8 °F 57.9 °F 30.07 in SSW 8.5 mph 17.3 mph 59.5% 0.00 in
11:34 72.6 °F 58.1 °F 30.07 in SW 6.4 mph 16.1 mph 60.4% 0.00 in
11:39 73 °F 57.8 °F 30.07 in SW 8.2 mph 16.1 mph 58.9% 0.00 in
11:44 73.3 °F 58 °F 30.07 in SSW 6.7 mph 13.2 mph 58.8% 0.00 in
11:49 73.8 °F 59.3 °F 30.07 in SSW 6 mph 13.2 mph 60.7% 0.00 in
11:54 74.1 °F 59.4 °F 30.07 in South 7.5 mph 13.2 mph 60.3% 0.00 in
11:59 73.9 °F 58.8 °F 30.07 in SSW 9.2 mph 16.1 mph 59.4% 0.00 in
12:04 73.9 °F 59 °F 30.07 in SSW 7.3 mph 16.1 mph 59.7% 0.00 in
12:09 74.2 °F 58 °F 30.07 in South 10.9 mph 20.7 mph 57.1% 0.00 in
12:14 74.3 °F 57.9 °F 30.07 in SSW 8.8 mph 17.3 mph 56.5% 0.00 in
12:19 74.4 °F 57.9 °F 30.06 in SSW 7.4 mph 16.1 mph 56.5% 0.00 in
12:24 74.6 °F 58.8 °F 30.06 in SSW 5.7 mph 10.8 mph 57.9% 0.00 in
12:29 75.2 °F 58.6 °F 30.06 in SW 9.8 mph 19.6 mph 56.4% 0.00 in
12:34 75.2 °F 58.7 °F 30.05 in SSW 9.3 mph 17.3 mph 56.6% 0.00 in
12:39 75.2 °F 58.6 °F 30.05 in SSW 8.6 mph 18.4 mph 56.3% 0.00 in
12:44 75.5 °F 57.9 °F 30.05 in SSW 10.1 mph 16.8 mph 54.5% 0.00 in
12:49 75.6 °F 57.7 °F 30.05 in SW 8.2 mph 16.8 mph 53.8% 0.00 in
12:54 75.4 °F 57.7 °F 30.05 in SSW 9.6 mph 20.7 mph 54.2% 0.00 in
12:59 75.9 °F 58.3 °F 30.05 in SSW 8 mph 20.7 mph 54.4% 0.00 in
13:04 76.1 °F 57.9 °F 30.05 in SSW 9.6 mph 17.3 mph 53.3% 0.00 in
13:09 76.3 °F 58.5 °F 30.05 in South 8.1 mph 17.3 mph 54.1% 0.00 in
13:14 76.3 °F 57.9 °F 30.05 in SSW 7.5 mph 15 mph 53% 0.00 in
13:19 76.6 °F 57.6 °F 30.05 in SSW 8.2 mph 20.4 mph 51.9% 0.00 in
13:24 77 °F 57.9 °F 30.05 in South 9.8 mph 20.7 mph 51.9% 0.00 in
13:29 77.6 °F 58.1 °F 30.05 in SW 8 mph 17.3 mph 51.2% 0.00 in
13:34 77.5 °F 57 °F 30.04 in SW 7.8 mph 15 mph 49.3% 0.00 in
13:39 77.1 °F 57.1 °F 30.04 in South 9.1 mph 16.8 mph 50.3% 0.00 in
13:44 77.7 °F 57.6 °F 30.04 in SSW 9.1 mph 19.6 mph 50.1% 0.00 in
13:49 78.4 °F 58.3 °F 30.04 in SSW 5.7 mph 15 mph 50.2% 0.00 in
13:54 77.9 °F 57.2 °F 30.04 in South 10.7 mph 23 mph 49% 0.00 in
13:59 77.6 °F 56.7 °F 30.04 in South 8.9 mph 16.8 mph 48.7% 0.00 in
14:04 77.7 °F 57 °F 30.04 in SSW 11.3 mph 23 mph 48.9% 0.00 in
14:09 78 °F 57 °F 30.04 in SSW 11.8 mph 20.7 mph 48.4% 0.00 in
14:14 77.9 °F 56.6 °F 30.04 in SSW 10.7 mph 20.7 mph 47.9% 0.00 in
14:19 78.5 °F 56.4 °F 30.04 in SW 8.5 mph 16.8 mph 46.7% 0.00 in
14:24 78.3 °F 55.9 °F 30.04 in SW 9.4 mph 20.7 mph 46.2% 0.00 in
14:29 78.1 °F 56.2 °F 30.04 in SW 8.6 mph 19.6 mph 47% 0.00 in
14:34 78.3 °F 56.4 °F 30.04 in SW 9.2 mph 16.8 mph 47.1% 0.00 in
14:39 78.5 °F 56.6 °F 30.04 in SSW 9.1 mph 17.3 mph 47% 0.00 in
14:44 79 °F 57 °F 30.04 in SSW 8.8 mph 17.3 mph 46.8% 0.00 in
14:49 79.1 °F 55.6 °F 30.03 in SSW 10.6 mph 17.3 mph 44.6% 0.00 in
14:54 78.6 °F 56.3 °F 30.03 in South 8.5 mph 16.1 mph 46.4% 0.00 in
14:59 78.4 °F 56.5 °F 30.03 in SSW 9.2 mph 18 mph 47% 0.00 in
15:04 78.6 °F 57.6 °F 30.02 in SSW 8.7 mph 18.4 mph 48.5% 0.00 in
15:09 79 °F 56.6 °F 30.02 in SW 6.4 mph 13.2 mph 46.4% 0.00 in
15:14 79.2 °F 57.2 °F 30.02 in SSW 6.8 mph 14.4 mph 47% 0.00 in
15:19 79.1 °F 56.4 °F 30.02 in SSW 9.9 mph 17.3 mph 45.8% 0.00 in
15:24 78.5 °F 56 °F 30.02 in SSW 8.2 mph 18.4 mph 45.9% 0.00 in
15:29 78.1 °F 55.9 °F 30.02 in South 10.7 mph 17.3 mph 46.5% 0.00 in
15:34 77.8 °F 55.6 °F 30.01 in South 8.9 mph 20.4 mph 46.3% 0.00 in
15:39 78.2 °F 56.6 °F 30.01 in South 9.4 mph 20.7 mph 47.7% 0.00 in
15:44 79 °F 56.7 °F 30.01 in SSW 11.7 mph 20.4 mph 46.4% 0.00 in
15:49 79.3 °F 56.8 °F 30.00 in SSW 11.5 mph 20.7 mph 46.1% 0.00 in
15:54 78.9 °F 56.1 °F 30.00 in South 12.7 mph 21.9 mph 45.6% 0.00 in
15:59 78.8 °F 55.4 °F 30.00 in SW 11.4 mph 18.4 mph 44.5% 0.00 in
16:04 79.2 °F 55.9 °F 29.99 in SW 9.7 mph 20.7 mph 44.8% 0.00 in
16:09 79.4 °F 56.5 °F 29.99 in SSW 10.9 mph 20.4 mph 45.5% 0.00 in
16:14 78.8 °F 55.6 °F 29.99 in South 11.4 mph 20.7 mph 44.8% 0.00 in
16:19 79.2 °F 56.3 °F 29.99 in South 10.1 mph 18.4 mph 45.4% 0.00 in
16:24 79.4 °F 56.5 °F 29.99 in SSW 12.6 mph 21.6 mph 45.5% 0.00 in
16:29 79.2 °F 56.5 °F 29.99 in SSW 12 mph 23 mph 45.8% 0.00 in
16:34 79.4 °F 56.3 °F 29.98 in SW 9.3 mph 21.9 mph 45.2% 0.00 in
16:39 79.5 °F 56.6 °F 29.98 in SSW 10.9 mph 21.9 mph 45.6% 0.00 in
16:44 79.5 °F 57 °F 29.98 in SSW 9 mph 18.4 mph 46.1% 0.00 in
16:49 79.3 °F 55.9 °F 29.98 in SSW 13.1 mph 23 mph 44.6% 0.00 in
16:54 79 °F 56.4 °F 29.98 in SSW 9.1 mph 18.4 mph 45.9% 0.00 in
16:59 79.4 °F 56.8 °F 29.99 in SSW 9.4 mph 16.8 mph 46.1% 0.00 in
17:04 79.7 °F 57.1 °F 29.99 in South 7.8 mph 17.3 mph 46.1% 0.00 in
17:09 79.2 °F 56.7 °F 29.99 in South 11.6 mph 20.7 mph 46.2% 0.00 in
17:14 78.9 °F 56.3 °F 29.99 in SSW 11.3 mph 19.2 mph 45.8% 0.00 in
17:19 79.1 °F 56.1 °F 29.98 in SSW 10.5 mph 20.7 mph 45.3% 0.00 in
17:24 79.5 °F 56.5 °F 29.98 in SSW 8.2 mph 18.4 mph 45.3% 0.00 in
17:29 79.4 °F 55.7 °F 29.98 in SSW 11.8 mph 21.9 mph 44.2% 0.00 in
17:34 79.3 °F 55.8 °F 29.98 in SSW 10 mph 21.9 mph 44.5% 0.00 in
17:39 79.1 °F 55.4 °F 29.98 in SSW 9.2 mph 21.9 mph 44% 0.00 in
17:44 79.1 °F 56.1 °F 29.98 in SSW 6.7 mph 15 mph 45.3% 0.00 in
17:49 79.4 °F 56.2 °F 29.98 in SSW 7.7 mph 19.6 mph 44.9% 0.00 in
17:54 79.3 °F 56 °F 29.98 in SW 8.7 mph 23 mph 44.7% 0.00 in
17:59 79 °F 56 °F 29.98 in SSW 7 mph 12 mph 45.3% 0.00 in
18:04 78.4 °F 56 °F 29.98 in SSW 9.7 mph 18.4 mph 46.2% 0.00 in
18:09 78.3 °F 56.2 °F 29.98 in SSW 8.1 mph 17.3 mph 46.7% 0.00 in
18:14 78.7 °F 56.5 °F 29.98 in SSW 8.6 mph 17.3 mph 46.5% 0.00 in
18:19 78.7 °F 56.1 °F 29.98 in SSW 9.8 mph 19.6 mph 45.8% 0.00 in
18:24 78.2 °F 55.9 °F 29.98 in SSW 11 mph 19.6 mph 46.4% 0.00 in
18:29 77.7 °F 55.8 °F 29.98 in SSW 9.8 mph 17.3 mph 46.9% 0.00 in
18:34 77.4 °F 56.1 °F 29.98 in SSW 8.1 mph 15 mph 47.8% 0.00 in
18:39 77.1 °F 56 °F 29.98 in SSW 8.3 mph 18.4 mph 48.2% 0.00 in
18:44 76.9 °F 55.8 °F 29.98 in SSW 7.4 mph 18.4 mph 48.1% 0.00 in
18:49 76.9 °F 56.3 °F 29.98 in South 8.1 mph 19.6 mph 49% 0.00 in
18:54 76.8 °F 56.1 °F 29.98 in South 10.1 mph 16.1 mph 48.8% 0.00 in
18:59 76.5 °F 55.9 °F 29.98 in SSW 10.1 mph 20.7 mph 49% 0.00 in
19:04 76.2 °F 56 °F 29.97 in South 8.4 mph 16.1 mph 49.7% 0.00 in
19:09 76 °F 56 °F 29.97 in South 10.6 mph 21.9 mph 50% 0.00 in
19:14 76 °F 56 °F 29.97 in SSW 9.2 mph 19.6 mph 50% 0.00 in
Clayton, NC Weather
Compliments of Weather Underground - 2 mb

Free counters!